Etusivu
METAR-TAF:

METAR-TAF

Lentoasemat :

Djerba, Tunisia

Leveyspiiri: 33-52N, Pituuspiiri: 010-46E, korkeus merenpinnasta: 3 m

Tämänhetkinen sää

Tämä raportti tehtiin 42 minuuttia sitten, kello 15.00 UTC
Tuuli 14 kn idästä
Lämpötila 25°C
Kosteus 79%
Ilmanpaine 1012 hPa
Näkyvyys: 8000 m
Hajanaisia pilviä 2600 ft:n korkeudessa

METAR: DTTJ 121500Z 08014KT 8000 SCT026 25/21 Q1012 NOSIG

Aika: 16:42 (15:42 UTC)

Sääennuste

Tämä raportti tehtiin 4 tuntia ja 42 minuuttia sitten, kello 11.00 UTC
Ennuste voimassa 12. päivästä klo 12 UTC - 13. päivään klo 12 UTC
Tuuli 18 kn idästä/koillisesta
Näkyvyys 10 km tai enemmän
Hajanaisia pilviä 3300 ft:n korkeudessa
Todennäköisyys 30% :
Ajoittain
13. päivästä klo 03 UTC - 13. päivään klo 12 UTC
Tuuli 20 kn pohjoisesta/koillisesta puuskistuen 30 kn:hen

TAF: DTTJ 121100Z 1212/1312 06018KT 9999 SCT033 PROB30 TEMPO 1303/1312 02020G30KT

Säähavainnot ja -ennusteet yli 4000 lentoasemalta (METAR- ja TAF-raportit).

Käytössä olevat sääasemat on merkitty karttaan keltaisilla ja punaisilla pisteillä.

Aseta hiiri pisteen päälle nähdäksesi sääaseman nimen.

Klikkaa sitten nähdäksesi säähavainnot ja -ennusteet.

Kartan vaihtaminen: klikkaa mustalla rastilla varustettuja vihreitä pisteitä, niin voit zoomata sisään; viivalla varustettua vihreää pistettä, niin voit zoomata ulos tai vihreitä nuolia, niin pääset viereisille kartoille.


METAR-TAF: